sensor_id;sensor_type;location;lat;lon;timestamp;P1;durP1;ratioP1;P2;durP2;ratioP2
8536;SDS011;4306;50.210;10.628;2024-03-22T00:01:02;6.78;;;4.32;;
8536;SDS011;4306;50.210;10.628;2024-03-22T00:03:30;9.70;;;4.50;;
8536;SDS011;4306;50.210;10.628;2024-03-22T00:05:57;6.32;;;4.55;;
8536;SDS011;4306;50.210;10.628;2024-03-22T00:08:23;9.13;;;5.17;;
8536;SDS011;4306;50.210;10.628;2024-03-22T00:10:50;8.00;;;4.47;;
8536;SDS011;4306;50.210;10.628;2024-03-22T00:13:16;6.03;;;3.80;;
8536;SDS011;4306;50.210;10.628;2024-03-22T00:15:44;8.18;;;4.50;;
8536;SDS011;4306;50.210;10.628;2024-03-22T00:18:10;12.53;;;7.37;;
8536;SDS011;4306;50.210;10.628;2024-03-22T00:20:38;9.43;;;6.40;;
8536;SDS011;4306;50.210;10.628;2024-03-22T00:23:05;6.43;;;3.80;;
8536;SDS011;4306;50.210;10.628;2024-03-22T00:25:32;5.93;;;3.00;;
8536;SDS011;4306;50.210;10.628;2024-03-22T00:27:57;5.03;;;2.40;;
8536;SDS011;4306;50.210;10.628;2024-03-22T00:30:24;5.68;;;3.00;;
8536;SDS011;4306;50.210;10.628;2024-03-22T00:32:50;6.07;;;3.22;;
8536;SDS011;4306;50.210;10.628;2024-03-22T00:35:17;4.10;;;2.83;;
8536;SDS011;4306;50.210;10.628;2024-03-22T00:37:45;5.95;;;2.67;;
8536;SDS011;4306;50.210;10.628;2024-03-22T00:40:12;5.75;;;3.35;;
8536;SDS011;4306;50.210;10.628;2024-03-22T00:42:38;6.47;;;3.93;;
8536;SDS011;4306;50.210;10.628;2024-03-22T00:45:05;6.10;;;3.80;;
8536;SDS011;4306;50.210;10.628;2024-03-22T00:47:32;6.65;;;4.20;;
8536;SDS011;4306;50.210;10.628;2024-03-22T00:49:59;7.70;;;4.20;;
8536;SDS011;4306;50.210;10.628;2024-03-22T00:52:26;6.00;;;2.95;;
8536;SDS011;4306;50.210;10.628;2024-03-22T00:54:55;6.45;;;3.50;;
8536;SDS011;4306;50.210;10.628;2024-03-22T00:57:21;6.28;;;3.72;;
8536;SDS011;4306;50.210;10.628;2024-03-22T00:59:48;7.30;;;4.00;;
8536;SDS011;4306;50.210;10.628;2024-03-22T01:02:14;7.28;;;4.38;;
8536;SDS011;4306;50.210;10.628;2024-03-22T01:04:41;6.47;;;4.13;;
8536;SDS011;4306;50.210;10.628;2024-03-22T01:07:07;5.30;;;3.53;;
8536;SDS011;4306;50.210;10.628;2024-03-22T01:09:34;5.65;;;3.55;;
8536;SDS011;4306;50.210;10.628;2024-03-22T01:12:02;5.60;;;3.80;;
8536;SDS011;4306;50.210;10.628;2024-03-22T01:14:30;6.50;;;3.63;;
8536;SDS011;4306;50.210;10.628;2024-03-22T01:16:56;7.43;;;4.35;;
8536;SDS011;4306;50.210;10.628;2024-03-22T01:19:23;6.50;;;3.67;;
8536;SDS011;4306;50.210;10.628;2024-03-22T01:21:49;10.03;;;4.60;;
8536;SDS011;4306;50.210;10.628;2024-03-22T01:24:16;8.95;;;5.03;;
8536;SDS011;4306;50.210;10.628;2024-03-22T01:26:42;7.67;;;4.00;;
8536;SDS011;4306;50.210;10.628;2024-03-22T01:29:11;9.60;;;4.38;;
8536;SDS011;4306;50.210;10.628;2024-03-22T01:31:38;8.50;;;4.10;;
8536;SDS011;4306;50.210;10.628;2024-03-22T01:34:05;12.30;;;5.00;;
8536;SDS011;4306;50.210;10.628;2024-03-22T01:36:31;8.10;;;4.47;;
8536;SDS011;4306;50.210;10.628;2024-03-22T01:38:58;6.95;;;4.38;;
8536;SDS011;4306;50.210;10.628;2024-03-22T01:41:24;8.33;;;4.00;;
8536;SDS011;4306;50.210;10.628;2024-03-22T01:43:52;6.55;;;3.90;;
8536;SDS011;4306;50.210;10.628;2024-03-22T01:46:19;6.00;;;3.92;;
8536;SDS011;4306;50.210;10.628;2024-03-22T01:48:46;7.78;;;4.68;;
8536;SDS011;4306;50.210;10.628;2024-03-22T01:51:12;8.43;;;4.67;;
8536;SDS011;4306;50.210;10.628;2024-03-22T01:53:40;8.68;;;4.90;;
8536;SDS011;4306;50.210;10.628;2024-03-22T01:56:06;7.05;;;3.92;;
8536;SDS011;4306;50.210;10.628;2024-03-22T01:58:34;7.88;;;4.07;;
8536;SDS011;4306;50.210;10.628;2024-03-22T02:01:00;8.43;;;4.03;;
8536;SDS011;4306;50.210;10.628;2024-03-22T02:03:29;8.03;;;3.90;;
8536;SDS011;4306;50.210;10.628;2024-03-22T02:05:55;7.27;;;3.63;;
8536;SDS011;4306;50.210;10.628;2024-03-22T02:08:22;7.90;;;3.77;;
8536;SDS011;4306;50.210;10.628;2024-03-22T02:10:48;5.60;;;3.20;;
8536;SDS011;4306;50.210;10.628;2024-03-22T02:13:15;5.50;;;3.50;;
8536;SDS011;4306;50.210;10.628;2024-03-22T02:15:41;5.30;;;3.60;;
8536;SDS011;4306;50.210;10.628;2024-03-22T02:18:08;6.15;;;3.60;;
8536;SDS011;4306;50.210;10.628;2024-03-22T02:20:36;6.03;;;3.73;;
8536;SDS011;4306;50.210;10.628;2024-03-22T02:23:03;8.77;;;3.60;;
8536;SDS011;4306;50.210;10.628;2024-03-22T02:25:30;9.03;;;3.57;;
8536;SDS011;4306;50.210;10.628;2024-03-22T02:27:57;7.60;;;3.97;;
8536;SDS011;4306;50.210;10.628;2024-03-22T02:30:23;6.18;;;3.85;;
8536;SDS011;4306;50.210;10.628;2024-03-22T02:32:50;7.03;;;4.00;;
8536;SDS011;4306;50.210;10.628;2024-03-22T02:35:17;6.30;;;4.07;;
8536;SDS011;4306;50.210;10.628;2024-03-22T02:37:44;6.57;;;3.40;;
8536;SDS011;4306;50.210;10.628;2024-03-22T02:40:10;10.82;;;6.30;;
8536;SDS011;4306;50.210;10.628;2024-03-22T02:42:39;9.93;;;5.43;;
8536;SDS011;4306;50.210;10.628;2024-03-22T02:45:06;7.90;;;4.50;;
8536;SDS011;4306;50.210;10.628;2024-03-22T02:47:34;7.60;;;4.53;;
8536;SDS011;4306;50.210;10.628;2024-03-22T02:50:00;6.53;;;4.20;;
8536;SDS011;4306;50.210;10.628;2024-03-22T02:52:27;7.35;;;3.90;;
8536;SDS011;4306;50.210;10.628;2024-03-22T02:54:53;6.13;;;3.95;;
8536;SDS011;4306;50.210;10.628;2024-03-22T02:57:20;9.88;;;3.70;;
8536;SDS011;4306;50.210;10.628;2024-03-22T02:59:48;6.47;;;3.70;;
8536;SDS011;4306;50.210;10.628;2024-03-22T03:02:15;6.78;;;3.67;;
8536;SDS011;4306;50.210;10.628;2024-03-22T03:04:41;7.67;;;4.10;;
8536;SDS011;4306;50.210;10.628;2024-03-22T03:07:08;6.80;;;3.83;;
8536;SDS011;4306;50.210;10.628;2024-03-22T03:09:33;9.93;;;3.83;;
8536;SDS011;4306;50.210;10.628;2024-03-22T03:12:00;5.28;;;3.53;;
8536;SDS011;4306;50.210;10.628;2024-03-22T03:14:27;8.50;;;4.97;;
8536;SDS011;4306;50.210;10.628;2024-03-22T03:16:55;10.30;;;5.22;;
8536;SDS011;4306;50.210;10.628;2024-03-22T03:19:21;8.23;;;4.70;;
8536;SDS011;4306;50.210;10.628;2024-03-22T03:21:48;7.10;;;4.87;;
8536;SDS011;4306;50.210;10.628;2024-03-22T03:24:14;9.95;;;6.15;;
8536;SDS011;4306;50.210;10.628;2024-03-22T03:26:41;7.77;;;5.33;;
8536;SDS011;4306;50.210;10.628;2024-03-22T03:29:07;9.13;;;5.00;;
8536;SDS011;4306;50.210;10.628;2024-03-22T03:31:35;10.20;;;4.75;;
8536;SDS011;4306;50.210;10.628;2024-03-22T03:34:02;7.30;;;4.57;;
8536;SDS011;4306;50.210;10.628;2024-03-22T03:36:29;6.15;;;4.00;;
8536;SDS011;4306;50.210;10.628;2024-03-22T03:38:55;7.38;;;3.70;;
8536;SDS011;4306;50.210;10.628;2024-03-22T03:41:22;9.75;;;5.05;;
8536;SDS011;4306;50.210;10.628;2024-03-22T03:43:48;8.60;;;5.20;;
8536;SDS011;4306;50.210;10.628;2024-03-22T03:46:15;8.93;;;4.93;;
8536;SDS011;4306;50.210;10.628;2024-03-22T03:48:41;8.60;;;5.27;;
8536;SDS011;4306;50.210;10.628;2024-03-22T03:51:09;9.53;;;5.63;;
8536;SDS011;4306;50.210;10.628;2024-03-22T03:53:35;9.98;;;5.97;;
8536;SDS011;4306;50.210;10.628;2024-03-22T03:56:02;10.83;;;5.70;;
8536;SDS011;4306;50.210;10.628;2024-03-22T03:58:29;9.80;;;5.80;;
8536;SDS011;4306;50.210;10.628;2024-03-22T04:00:56;12.17;;;6.13;;
8536;SDS011;4306;50.210;10.628;2024-03-22T04:03:22;11.37;;;6.40;;
8536;SDS011;4306;50.210;10.628;2024-03-22T04:05:55;10.40;;;6.17;;
8536;SDS011;4306;50.210;10.628;2024-03-22T04:08:23;13.87;;;5.87;;
8536;SDS011;4306;50.210;10.628;2024-03-22T04:10:51;10.15;;;5.60;;
8536;SDS011;4306;50.210;10.628;2024-03-22T04:13:17;9.57;;;4.60;;
8536;SDS011;4306;50.210;10.628;2024-03-22T04:15:44;8.27;;;4.72;;
8536;SDS011;4306;50.210;10.628;2024-03-22T04:18:10;7.57;;;4.68;;
8536;SDS011;4306;50.210;10.628;2024-03-22T04:20:38;8.63;;;5.27;;
8536;SDS011;4306;50.210;10.628;2024-03-22T04:23:04;10.50;;;5.65;;
8536;SDS011;4306;50.210;10.628;2024-03-22T04:25:32;9.00;;;5.50;;
8536;SDS011;4306;50.210;10.628;2024-03-22T04:27:58;9.10;;;5.50;;
8536;SDS011;4306;50.210;10.628;2024-03-22T04:30:25;11.35;;;4.95;;
8536;SDS011;4306;50.210;10.628;2024-03-22T04:32:51;8.23;;;5.03;;
8536;SDS011;4306;50.210;10.628;2024-03-22T04:35:18;8.40;;;4.40;;
8536;SDS011;4306;50.210;10.628;2024-03-22T04:37:44;11.13;;;4.40;;
8536;SDS011;4306;50.210;10.628;2024-03-22T04:40:11;6.55;;;3.92;;
8536;SDS011;4306;50.210;10.628;2024-03-22T04:42:40;9.43;;;4.67;;
8536;SDS011;4306;50.210;10.628;2024-03-22T04:45:06;9.10;;;4.60;;
8536;SDS011;4306;50.210;10.628;2024-03-22T04:47:34;9.70;;;4.47;;
8536;SDS011;4306;50.210;10.628;2024-03-22T04:50:02;6.10;;;4.13;;
8536;SDS011;4306;50.210;10.628;2024-03-22T04:52:31;8.23;;;4.77;;
8536;SDS011;4306;50.210;10.628;2024-03-22T04:54:57;9.67;;;4.33;;
8536;SDS011;4306;50.210;10.628;2024-03-22T04:57:27;6.75;;;3.88;;
8536;SDS011;4306;50.210;10.628;2024-03-22T04:59:54;8.70;;;5.43;;
8536;SDS011;4306;50.210;10.628;2024-03-22T05:02:21;8.50;;;5.23;;
8536;SDS011;4306;50.210;10.628;2024-03-22T05:04:47;9.97;;;5.30;;
8536;SDS011;4306;50.210;10.628;2024-03-22T05:07:14;10.70;;;5.40;;
8536;SDS011;4306;50.210;10.628;2024-03-22T05:09:40;10.00;;;5.47;;
8536;SDS011;4306;50.210;10.628;2024-03-22T05:12:07;10.13;;;4.80;;
8536;SDS011;4306;50.210;10.628;2024-03-22T05:14:33;11.57;;;6.80;;
8536;SDS011;4306;50.210;10.628;2024-03-22T05:17:02;8.87;;;5.17;;
8536;SDS011;4306;50.210;10.628;2024-03-22T05:19:28;8.40;;;4.47;;
8536;SDS011;4306;50.210;10.628;2024-03-22T05:21:55;9.20;;;5.83;;
8536;SDS011;4306;50.210;10.628;2024-03-22T05:24:21;12.07;;;6.73;;
8536;SDS011;4306;50.210;10.628;2024-03-22T05:26:48;9.00;;;5.60;;
8536;SDS011;4306;50.210;10.628;2024-03-22T05:29:14;10.73;;;5.33;;
8536;SDS011;4306;50.210;10.628;2024-03-22T05:31:45;8.57;;;4.80;;
8536;SDS011;4306;50.210;10.628;2024-03-22T05:34:14;6.50;;;4.60;;
8536;SDS011;4306;50.210;10.628;2024-03-22T05:36:41;8.20;;;4.67;;
8536;SDS011;4306;50.210;10.628;2024-03-22T05:39:08;9.27;;;5.27;;
8536;SDS011;4306;50.210;10.628;2024-03-22T05:41:36;9.73;;;6.50;;
8536;SDS011;4306;50.210;10.628;2024-03-22T05:44:03;11.33;;;6.03;;
8536;SDS011;4306;50.210;10.628;2024-03-22T05:46:30;8.07;;;5.13;;
8536;SDS011;4306;50.210;10.628;2024-03-22T05:48:56;9.02;;;4.82;;
8536;SDS011;4306;50.210;10.628;2024-03-22T05:51:25;6.47;;;4.50;;
8536;SDS011;4306;50.210;10.628;2024-03-22T05:53:52;10.23;;;5.07;;
8536;SDS011;4306;50.210;10.628;2024-03-22T05:56:18;10.52;;;5.57;;
8536;SDS011;4306;50.210;10.628;2024-03-22T05:58:45;8.27;;;5.33;;
8536;SDS011;4306;50.210;10.628;2024-03-22T06:01:11;8.97;;;5.50;;
8536;SDS011;4306;50.210;10.628;2024-03-22T06:03:38;10.43;;;5.90;;
8536;SDS011;4306;50.210;10.628;2024-03-22T06:06:05;10.03;;;5.73;;
8536;SDS011;4306;50.210;10.628;2024-03-22T06:08:33;9.30;;;6.13;;
8536;SDS011;4306;50.210;10.628;2024-03-22T06:11:00;10.97;;;5.73;;
8536;SDS011;4306;50.210;10.628;2024-03-22T06:13:27;8.93;;;5.90;;
8536;SDS011;4306;50.210;10.628;2024-03-22T06:15:53;8.07;;;5.85;;
8536;SDS011;4306;50.210;10.628;2024-03-22T06:18:20;8.63;;;5.10;;
8536;SDS011;4306;50.210;10.628;2024-03-22T06:20:46;11.77;;;5.70;;
8536;SDS011;4306;50.210;10.628;2024-03-22T06:23:13;11.13;;;6.65;;
8536;SDS011;4306;50.210;10.628;2024-03-22T06:25:40;10.90;;;6.40;;
8536;SDS011;4306;50.210;10.628;2024-03-22T06:28:07;11.87;;;7.50;;
8536;SDS011;4306;50.210;10.628;2024-03-22T06:30:33;11.90;;;7.63;;
8536;SDS011;4306;50.210;10.628;2024-03-22T06:33:01;14.50;;;8.20;;
8536;SDS011;4306;50.210;10.628;2024-03-22T06:35:27;12.23;;;7.30;;
8536;SDS011;4306;50.210;10.628;2024-03-22T06:37:54;13.52;;;7.65;;
8536;SDS011;4306;50.210;10.628;2024-03-22T06:40:20;12.27;;;8.10;;
8536;SDS011;4306;50.210;10.628;2024-03-22T06:42:48;14.93;;;8.48;;
8536;SDS011;4306;50.210;10.628;2024-03-22T06:45:14;19.60;;;12.63;;
8536;SDS011;4306;50.210;10.628;2024-03-22T06:47:41;19.20;;;12.38;;
8536;SDS011;4306;50.210;10.628;2024-03-22T06:50:07;17.50;;;11.07;;
8536;SDS011;4306;50.210;10.628;2024-03-22T06:52:35;18.75;;;11.15;;
8536;SDS011;4306;50.210;10.628;2024-03-22T06:55:01;18.88;;;11.60;;
8536;SDS011;4306;50.210;10.628;2024-03-22T06:57:29;21.85;;;12.55;;
8536;SDS011;4306;50.210;10.628;2024-03-22T06:59:56;22.20;;;12.85;;
8536;SDS011;4306;50.210;10.628;2024-03-22T07:02:23;22.48;;;13.10;;
8536;SDS011;4306;50.210;10.628;2024-03-22T07:04:49;23.05;;;12.35;;
8536;SDS011;4306;50.210;10.628;2024-03-22T07:07:17;19.80;;;12.32;;
8536;SDS011;4306;50.210;10.628;2024-03-22T07:09:43;22.60;;;12.25;;
8536;SDS011;4306;50.210;10.628;2024-03-22T07:12:11;21.50;;;12.75;;
8536;SDS011;4306;50.210;10.628;2024-03-22T07:14:37;23.52;;;14.23;;
8536;SDS011;4306;50.210;10.628;2024-03-22T07:17:05;23.75;;;14.27;;
8536;SDS011;4306;50.210;10.628;2024-03-22T07:19:31;23.73;;;14.70;;
8536;SDS011;4306;50.210;10.628;2024-03-22T07:21:59;26.05;;;14.43;;
8536;SDS011;4306;50.210;10.628;2024-03-22T07:24:25;24.02;;;15.05;;
8536;SDS011;4306;50.210;10.628;2024-03-22T07:26:52;24.73;;;15.27;;
8536;SDS011;4306;50.210;10.628;2024-03-22T07:29:18;27.48;;;16.10;;
8536;SDS011;4306;50.210;10.628;2024-03-22T07:31:45;29.70;;;17.40;;
8536;SDS011;4306;50.210;10.628;2024-03-22T07:34:13;26.52;;;16.48;;
8536;SDS011;4306;50.210;10.628;2024-03-22T07:36:40;29.83;;;16.40;;
8536;SDS011;4306;50.210;10.628;2024-03-22T07:39:06;27.98;;;17.83;;
8536;SDS011;4306;50.210;10.628;2024-03-22T07:41:33;27.40;;;16.15;;
8536;SDS011;4306;50.210;10.628;2024-03-22T07:44:00;26.70;;;15.70;;
8536;SDS011;4306;50.210;10.628;2024-03-22T07:46:27;21.55;;;14.68;;
8536;SDS011;4306;50.210;10.628;2024-03-22T07:48:54;23.95;;;15.32;;
8536;SDS011;4306;50.210;10.628;2024-03-22T07:51:22;24.23;;;14.35;;
8536;SDS011;4306;50.210;10.628;2024-03-22T07:53:48;22.17;;;14.57;;
8536;SDS011;4306;50.210;10.628;2024-03-22T07:56:17;23.67;;;14.00;;
8536;SDS011;4306;50.210;10.628;2024-03-22T07:58:44;23.67;;;14.90;;
8536;SDS011;4306;50.210;10.628;2024-03-22T08:01:12;25.38;;;15.30;;
8536;SDS011;4306;50.210;10.628;2024-03-22T08:03:38;25.75;;;14.73;;
8536;SDS011;4306;50.210;10.628;2024-03-22T08:06:05;26.40;;;15.35;;
8536;SDS011;4306;50.210;10.628;2024-03-22T08:08:32;25.15;;;15.43;;
8536;SDS011;4306;50.210;10.628;2024-03-22T08:10:59;24.75;;;15.05;;
8536;SDS011;4306;50.210;10.628;2024-03-22T08:13:25;26.67;;;14.85;;
8536;SDS011;4306;50.210;10.628;2024-03-22T08:15:52;25.35;;;15.70;;
8536;SDS011;4306;50.210;10.628;2024-03-22T08:18:19;26.23;;;15.60;;
8536;SDS011;4306;50.210;10.628;2024-03-22T08:20:46;25.17;;;14.57;;
8536;SDS011;4306;50.210;10.628;2024-03-22T08:23:12;23.63;;;14.27;;
8536;SDS011;4306;50.210;10.628;2024-03-22T08:25:40;22.25;;;14.55;;
8536;SDS011;4306;50.210;10.628;2024-03-22T08:28:07;26.25;;;15.00;;
8536;SDS011;4306;50.210;10.628;2024-03-22T08:30:36;25.67;;;15.27;;
8536;SDS011;4306;50.210;10.628;2024-03-22T08:33:03;24.85;;;14.93;;
8536;SDS011;4306;50.210;10.628;2024-03-22T08:35:30;23.13;;;14.63;;
8536;SDS011;4306;50.210;10.628;2024-03-22T08:37:56;22.85;;;14.65;;
8536;SDS011;4306;50.210;10.628;2024-03-22T08:40:24;22.85;;;13.93;;
8536;SDS011;4306;50.210;10.628;2024-03-22T08:42:51;23.77;;;15.07;;
8536;SDS011;4306;50.210;10.628;2024-03-22T08:45:18;25.45;;;15.15;;
8536;SDS011;4306;50.210;10.628;2024-03-22T08:47:44;23.95;;;13.93;;
8536;SDS011;4306;50.210;10.628;2024-03-22T08:53:40;22.85;;;13.75;;
8536;SDS011;4306;50.210;10.628;2024-03-22T08:56:06;23.83;;;13.95;;
8536;SDS011;4306;50.210;10.628;2024-03-22T08:58:35;21.85;;;13.25;;
8536;SDS011;4306;50.210;10.628;2024-03-22T09:01:01;20.20;;;13.48;;
8536;SDS011;4306;50.210;10.628;2024-03-22T09:03:28;21.33;;;14.02;;
8536;SDS011;4306;50.210;10.628;2024-03-22T09:05:55;21.83;;;13.93;;
8536;SDS011;4306;50.210;10.628;2024-03-22T09:08:23;22.52;;;14.25;;
8536;SDS011;4306;50.210;10.628;2024-03-22T09:10:49;22.85;;;15.93;;
8536;SDS011;4306;50.210;10.628;2024-03-22T09:13:16;25.85;;;17.67;;
8536;SDS011;4306;50.210;10.628;2024-03-22T09:15:43;23.52;;;14.05;;
8536;SDS011;4306;50.210;10.628;2024-03-22T09:18:10;22.55;;;15.18;;
8536;SDS011;4306;50.210;10.628;2024-03-22T09:20:36;19.88;;;12.95;;
8536;SDS011;4306;50.210;10.628;2024-03-22T09:23:03;21.38;;;14.27;;
8536;SDS011;4306;50.210;10.628;2024-03-22T09:25:29;19.30;;;13.48;;
8536;SDS011;4306;50.210;10.628;2024-03-22T09:27:56;20.38;;;12.90;;
8536;SDS011;4306;50.210;10.628;2024-03-22T09:30:22;17.70;;;12.57;;
8536;SDS011;4306;50.210;10.628;2024-03-22T09:32:51;20.77;;;13.65;;
8536;SDS011;4306;50.210;10.628;2024-03-22T09:35:17;20.05;;;12.65;;
8536;SDS011;4306;50.210;10.628;2024-03-22T09:37:44;20.38;;;12.90;;
8536;SDS011;4306;50.210;10.628;2024-03-22T09:40:10;19.50;;;12.35;;
8536;SDS011;4306;50.210;10.628;2024-03-22T09:42:38;17.30;;;11.35;;
8536;SDS011;4306;50.210;10.628;2024-03-22T09:45:08;19.60;;;11.45;;
8536;SDS011;4306;50.210;10.628;2024-03-22T09:47:36;17.17;;;10.60;;
8536;SDS011;4306;50.210;10.628;2024-03-22T09:50:05;18.40;;;11.98;;
8536;SDS011;4306;50.210;10.628;2024-03-22T09:52:36;17.30;;;10.30;;
8536;SDS011;4306;50.210;10.628;2024-03-22T09:55:04;16.88;;;11.27;;
8536;SDS011;4306;50.210;10.628;2024-03-22T09:57:33;17.45;;;10.93;;
8536;SDS011;4306;50.210;10.628;2024-03-22T10:00:04;16.08;;;10.80;;
8536;SDS011;4306;50.210;10.628;2024-03-22T10:02:34;16.20;;;11.35;;
8536;SDS011;4306;50.210;10.628;2024-03-22T10:05:00;16.27;;;10.85;;
8536;SDS011;4306;50.210;10.628;2024-03-22T10:07:29;15.38;;;10.48;;
8536;SDS011;4306;50.210;10.628;2024-03-22T10:09:57;16.35;;;11.00;;
8536;SDS011;4306;50.210;10.628;2024-03-22T10:12:24;17.45;;;10.95;;
8536;SDS011;4306;50.210;10.628;2024-03-22T10:14:50;17.25;;;11.18;;
8536;SDS011;4306;50.210;10.628;2024-03-22T10:17:19;17.77;;;11.70;;
8536;SDS011;4306;50.210;10.628;2024-03-22T10:19:45;19.70;;;11.02;;
8536;SDS011;4306;50.210;10.628;2024-03-22T10:22:15;18.17;;;12.07;;
8536;SDS011;4306;50.210;10.628;2024-03-22T10:24:43;19.88;;;11.60;;
8536;SDS011;4306;50.210;10.628;2024-03-22T10:27:10;16.13;;;11.32;;
8536;SDS011;4306;50.210;10.628;2024-03-22T10:29:36;16.88;;;10.00;;
8536;SDS011;4306;50.210;10.628;2024-03-22T10:32:03;16.40;;;10.60;;
8536;SDS011;4306;50.210;10.628;2024-03-22T10:34:31;16.05;;;12.15;;
8536;SDS011;4306;50.210;10.628;2024-03-22T10:37:00;17.17;;;11.15;;
8536;SDS011;4306;50.210;10.628;2024-03-22T10:39:26;16.35;;;10.30;;
8536;SDS011;4306;50.210;10.628;2024-03-22T10:41:56;15.73;;;11.20;;
8536;SDS011;4306;50.210;10.628;2024-03-22T10:44:22;16.55;;;11.35;;
8536;SDS011;4306;50.210;10.628;2024-03-22T10:46:49;16.17;;;10.95;;
8536;SDS011;4306;50.210;10.628;2024-03-22T10:49:17;14.88;;;10.23;;
8536;SDS011;4306;50.210;10.628;2024-03-22T10:51:47;17.48;;;11.43;;
8536;SDS011;4306;50.210;10.628;2024-03-22T10:54:18;17.80;;;10.48;;
8536;SDS011;4306;50.210;10.628;2024-03-22T10:56:48;15.10;;;10.02;;
8536;SDS011;4306;50.210;10.628;2024-03-22T10:59:16;16.80;;;10.85;;
8536;SDS011;4306;50.210;10.628;2024-03-22T11:01:46;16.17;;;10.20;;
8536;SDS011;4306;50.210;10.628;2024-03-22T11:04:12;15.75;;;11.13;;
8536;SDS011;4306;50.210;10.628;2024-03-22T11:06:46;14.95;;;9.85;;
8536;SDS011;4306;50.210;10.628;2024-03-22T11:09:18;12.80;;;9.73;;
8536;SDS011;4306;50.210;10.628;2024-03-22T11:11:48;14.52;;;10.00;;
8536;SDS011;4306;50.210;10.628;2024-03-22T11:14:15;12.27;;;8.95;;
8536;SDS011;4306;50.210;10.628;2024-03-22T11:16:43;13.18;;;8.77;;
8536;SDS011;4306;50.210;10.628;2024-03-22T11:19:09;12.13;;;8.80;;
8536;SDS011;4306;50.210;10.628;2024-03-22T11:21:37;13.07;;;8.90;;
8536;SDS011;4306;50.210;10.628;2024-03-22T11:24:03;14.20;;;8.07;;
8536;SDS011;4306;50.210;10.628;2024-03-22T11:26:31;12.45;;;8.07;;
8536;SDS011;4306;50.210;10.628;2024-03-22T11:28:57;12.20;;;7.30;;
8536;SDS011;4306;50.210;10.628;2024-03-22T11:31:26;10.40;;;6.70;;
8536;SDS011;4306;50.210;10.628;2024-03-22T11:33:52;13.30;;;8.02;;
8536;SDS011;4306;50.210;10.628;2024-03-22T11:36:20;9.98;;;6.43;;
8536;SDS011;4306;50.210;10.628;2024-03-22T11:38:46;8.93;;;6.93;;
8536;SDS011;4306;50.210;10.628;2024-03-22T11:41:15;7.57;;;5.40;;
8536;SDS011;4306;50.210;10.628;2024-03-22T11:43:43;8.07;;;6.03;;
8536;SDS011;4306;50.210;10.628;2024-03-22T11:46:12;10.32;;;6.28;;
8536;SDS011;4306;50.210;10.628;2024-03-22T11:48:41;12.52;;;5.85;;
8536;SDS011;4306;50.210;10.628;2024-03-22T11:51:09;9.45;;;6.47;;
8536;SDS011;4306;50.210;10.628;2024-03-22T11:53:35;10.20;;;5.57;;
8536;SDS011;4306;50.210;10.628;2024-03-22T11:56:03;8.57;;;6.00;;
8536;SDS011;4306;50.210;10.628;2024-03-22T11:58:30;9.55;;;6.18;;
8536;SDS011;4306;50.210;10.628;2024-03-22T12:00:57;9.43;;;6.22;;
8536;SDS011;4306;50.210;10.628;2024-03-22T12:03:24;9.55;;;6.35;;
8536;SDS011;4306;50.210;10.628;2024-03-22T12:05:53;9.30;;;5.60;;
8536;SDS011;4306;50.210;10.628;2024-03-22T12:08:20;12.25;;;6.32;;
8536;SDS011;4306;50.210;10.628;2024-03-22T12:10:47;9.27;;;5.13;;
8536;SDS011;4306;50.210;10.628;2024-03-22T12:13:13;8.27;;;5.60;;
8536;SDS011;4306;50.210;10.628;2024-03-22T12:15:40;9.10;;;6.18;;
8536;SDS011;4306;50.210;10.628;2024-03-22T12:18:06;7.25;;;4.93;;
8536;SDS011;4306;50.210;10.628;2024-03-22T12:20:33;7.57;;;5.47;;
8536;SDS011;4306;50.210;10.628;2024-03-22T12:23:00;10.27;;;6.45;;
8536;SDS011;4306;50.210;10.628;2024-03-22T12:25:28;9.35;;;5.47;;
8536;SDS011;4306;50.210;10.628;2024-03-22T12:27:54;8.23;;;5.50;;
8536;SDS011;4306;50.210;10.628;2024-03-22T12:30:21;7.43;;;4.47;;
8536;SDS011;4306;50.210;10.628;2024-03-22T12:32:47;9.68;;;5.20;;
8536;SDS011;4306;50.210;10.628;2024-03-22T12:35:14;8.52;;;4.93;;
8536;SDS011;4306;50.210;10.628;2024-03-22T12:37:40;7.47;;;4.55;;
8536;SDS011;4306;50.210;10.628;2024-03-22T12:40:10;7.50;;;4.68;;
8536;SDS011;4306;50.210;10.628;2024-03-22T12:43:19;6.75;;;4.43;;
8536;SDS011;4306;50.210;10.628;2024-03-22T12:48:39;7.93;;;4.30;;
8536;SDS011;4306;50.210;10.628;2024-03-22T12:51:06;6.82;;;4.10;;
8536;SDS011;4306;50.210;10.628;2024-03-22T12:53:32;8.02;;;4.13;;
8536;SDS011;4306;50.210;10.628;2024-03-22T12:56:01;7.00;;;4.30;;
8536;SDS011;4306;50.210;10.628;2024-03-22T12:58:29;6.72;;;4.20;;
8536;SDS011;4306;50.210;10.628;2024-03-22T13:00:56;5.88;;;4.03;;
8536;SDS011;4306;50.210;10.628;2024-03-22T13:03:22;6.13;;;4.10;;
8536;SDS011;4306;50.210;10.628;2024-03-22T13:05:50;10.00;;;4.60;;
8536;SDS011;4306;50.210;10.628;2024-03-22T13:08:16;6.45;;;4.15;;
8536;SDS011;4306;50.210;10.628;2024-03-22T13:10:44;7.05;;;4.25;;
8536;SDS011;4306;50.210;10.628;2024-03-22T13:13:11;7.00;;;3.72;;
8536;SDS011;4306;50.210;10.628;2024-03-22T13:15:40;5.75;;;3.22;;
8536;SDS011;4306;50.210;10.628;2024-03-22T13:18:07;9.45;;;4.00;;
8536;SDS011;4306;50.210;10.628;2024-03-22T13:20:35;6.03;;;3.60;;
8536;SDS011;4306;50.210;10.628;2024-03-22T13:26:43;5.05;;;3.35;;
8536;SDS011;4306;50.210;10.628;2024-03-22T13:29:11;5.90;;;3.08;;
8536;SDS011;4306;50.210;10.628;2024-03-22T13:31:38;5.85;;;3.22;;
8536;SDS011;4306;50.210;10.628;2024-03-22T13:34:05;5.47;;;2.80;;
8536;SDS011;4306;50.210;10.628;2024-03-22T13:36:32;6.32;;;3.20;;
8536;SDS011;4306;50.210;10.628;2024-03-22T13:38:59;5.45;;;2.80;;
8536;SDS011;4306;50.210;10.628;2024-03-22T13:41:25;5.57;;;2.90;;
8536;SDS011;4306;50.210;10.628;2024-03-22T13:43:53;6.80;;;2.90;;
8536;SDS011;4306;50.210;10.628;2024-03-22T13:46:20;5.53;;;2.90;;
8536;SDS011;4306;50.210;10.628;2024-03-22T13:48:47;6.40;;;3.33;;
8536;SDS011;4306;50.210;10.628;2024-03-22T13:51:13;7.10;;;2.85;;
8536;SDS011;4306;50.210;10.628;2024-03-22T13:53:40;4.80;;;2.47;;
8536;SDS011;4306;50.210;10.628;2024-03-22T13:56:07;4.20;;;2.65;;
8536;SDS011;4306;50.210;10.628;2024-03-22T13:58:34;4.95;;;3.00;;
8536;SDS011;4306;50.210;10.628;2024-03-22T14:01:00;6.30;;;2.80;;
8536;SDS011;4306;50.210;10.628;2024-03-22T14:03:29;5.53;;;3.10;;
8536;SDS011;4306;50.210;10.628;2024-03-22T14:05:55;5.80;;;3.10;;
8536;SDS011;4306;50.210;10.628;2024-03-22T14:08:22;6.30;;;2.97;;
8536;SDS011;4306;50.210;10.628;2024-03-22T14:10:48;6.70;;;2.20;;
8536;SDS011;4306;50.210;10.628;2024-03-22T14:13:15;3.45;;;2.45;;
8536;SDS011;4306;50.210;10.628;2024-03-22T14:15:41;4.00;;;2.30;;
8536;SDS011;4306;50.210;10.628;2024-03-22T14:18:08;4.82;;;2.35;;
8536;SDS011;4306;50.210;10.628;2024-03-22T14:20:36;3.88;;;2.28;;
8536;SDS011;4306;50.210;10.628;2024-03-22T14:23:03;4.47;;;2.25;;
8536;SDS011;4306;50.210;10.628;2024-03-22T14:25:31;3.92;;;2.20;;
8536;SDS011;4306;50.210;10.628;2024-03-22T14:28:00;6.18;;;2.35;;
8536;SDS011;4306;50.210;10.628;2024-03-22T14:30:26;3.70;;;2.13;;
8536;SDS011;4306;50.210;10.628;2024-03-22T14:32:53;5.10;;;2.17;;
8536;SDS011;4306;50.210;10.628;2024-03-22T14:35:19;3.92;;;2.28;;
8536;SDS011;4306;50.210;10.628;2024-03-22T14:37:49;5.47;;;1.90;;
8536;SDS011;4306;50.210;10.628;2024-03-22T14:40:15;5.35;;;2.17;;
8536;SDS011;4306;50.210;10.628;2024-03-22T14:42:42;2.90;;;2.00;;
8536;SDS011;4306;50.210;10.628;2024-03-22T14:45:09;3.63;;;2.00;;
8536;SDS011;4306;50.210;10.628;2024-03-22T14:47:36;2.97;;;1.80;;
8536;SDS011;4306;50.210;10.628;2024-03-22T14:50:03;3.63;;;1.70;;
8536;SDS011;4306;50.210;10.628;2024-03-22T14:52:32;4.22;;;1.90;;
8536;SDS011;4306;50.210;10.628;2024-03-22T14:54:59;2.85;;;1.70;;
8536;SDS011;4306;50.210;10.628;2024-03-22T14:57:27;4.50;;;1.83;;
8536;SDS011;4306;50.210;10.628;2024-03-22T14:59:53;3.78;;;1.67;;